sensor_id;sensor_type;location;lat;lon;timestamp;temperature;humidity
15217;DHT22;7711;46.634;14.318;2023-06-22T00:01:20;19.40;99.90
15217;DHT22;7711;46.634;14.318;2023-06-22T00:03:48;19.30;99.90
15217;DHT22;7711;46.634;14.318;2023-06-22T00:06:15;19.30;99.90
15217;DHT22;7711;46.634;14.318;2023-06-22T00:08:42;19.20;99.90
15217;DHT22;7711;46.634;14.318;2023-06-22T00:11:09;19.20;99.90
15217;DHT22;7711;46.634;14.318;2023-06-22T00:13:36;19.20;99.90
15217;DHT22;7711;46.634;14.318;2023-06-22T00:16:04;19.20;99.90
15217;DHT22;7711;46.634;14.318;2023-06-22T00:18:31;19.20;99.90
15217;DHT22;7711;46.634;14.318;2023-06-22T00:20:59;19.20;99.90
15217;DHT22;7711;46.634;14.318;2023-06-22T00:23:27;19.20;99.90
15217;DHT22;7711;46.634;14.318;2023-06-22T00:25:54;19.10;99.90
15217;DHT22;7711;46.634;14.318;2023-06-22T00:28:21;19.10;99.90
15217;DHT22;7711;46.634;14.318;2023-06-22T00:30:49;19.00;99.90
15217;DHT22;7711;46.634;14.318;2023-06-22T00:33:17;19.00;99.90
15217;DHT22;7711;46.634;14.318;2023-06-22T00:35:44;18.90;99.90
15217;DHT22;7711;46.634;14.318;2023-06-22T00:38:11;18.90;99.90
15217;DHT22;7711;46.634;14.318;2023-06-22T00:40:38;18.90;99.90
15217;DHT22;7711;46.634;14.318;2023-06-22T00:43:06;18.90;99.90
15217;DHT22;7711;46.634;14.318;2023-06-22T00:45:33;18.90;1.00
15217;DHT22;7711;46.634;14.318;2023-06-22T00:48:00;18.90;1.00
15217;DHT22;7711;46.634;14.318;2023-06-22T00:50:32;18.90;1.00
15217;DHT22;7711;46.634;14.318;2023-06-22T00:53:03;18.90;1.00
15217;DHT22;7711;46.634;14.318;2023-06-22T00:55:33;18.90;1.00
15217;DHT22;7711;46.634;14.318;2023-06-22T00:58:03;18.80;1.00
15217;DHT22;7711;46.634;14.318;2023-06-22T01:00:33;18.80;1.00
15217;DHT22;7711;46.634;14.318;2023-06-22T01:03:02;18.80;1.00
15217;DHT22;7711;46.634;14.318;2023-06-22T01:05:31;18.80;1.00
15217;DHT22;7711;46.634;14.318;2023-06-22T01:08:08;18.70;1.00
15217;DHT22;7711;46.634;14.318;2023-06-22T01:10:43;18.70;1.00
15217;DHT22;7711;46.634;14.318;2023-06-22T01:13:21;18.80;1.00
15217;DHT22;7711;46.634;14.318;2023-06-22T01:15:58;18.80;1.00
15217;DHT22;7711;46.634;14.318;2023-06-22T01:18:29;18.70;1.00
15217;DHT22;7711;46.634;14.318;2023-06-22T01:21:00;18.70;1.00
15217;DHT22;7711;46.634;14.318;2023-06-22T01:23:37;18.70;1.00
15217;DHT22;7711;46.634;14.318;2023-06-22T01:26:14;18.70;1.00
15217;DHT22;7711;46.634;14.318;2023-06-22T01:28:48;18.60;1.00
15217;DHT22;7711;46.634;14.318;2023-06-22T01:31:18;18.60;1.00
15217;DHT22;7711;46.634;14.318;2023-06-22T01:33:49;18.60;1.00
15217;DHT22;7711;46.634;14.318;2023-06-22T01:36:17;18.60;1.00
15217;DHT22;7711;46.634;14.318;2023-06-22T01:38:45;18.50;1.00
15217;DHT22;7711;46.634;14.318;2023-06-22T01:41:13;18.50;1.00
15217;DHT22;7711;46.634;14.318;2023-06-22T01:43:40;18.40;1.00
15217;DHT22;7711;46.634;14.318;2023-06-22T01:46:10;18.50;1.00
15217;DHT22;7711;46.634;14.318;2023-06-22T01:48:38;18.50;1.00
15217;DHT22;7711;46.634;14.318;2023-06-22T01:51:06;18.50;1.00
15217;DHT22;7711;46.634;14.318;2023-06-22T01:53:32;18.40;1.00
15217;DHT22;7711;46.634;14.318;2023-06-22T01:55:59;18.40;1.00
15217;DHT22;7711;46.634;14.318;2023-06-22T01:58:27;18.40;1.00
15217;DHT22;7711;46.634;14.318;2023-06-22T02:00:58;18.50;1.00
15217;DHT22;7711;46.634;14.318;2023-06-22T02:03:34;18.50;1.00
15217;DHT22;7711;46.634;14.318;2023-06-22T02:06:05;18.40;1.00
15217;DHT22;7711;46.634;14.318;2023-06-22T02:08:39;18.40;1.00
15217;DHT22;7711;46.634;14.318;2023-06-22T02:11:08;18.40;1.00
15217;DHT22;7711;46.634;14.318;2023-06-22T02:13:36;18.40;1.00
15217;DHT22;7711;46.634;14.318;2023-06-22T02:16:03;18.40;1.00
15217;DHT22;7711;46.634;14.318;2023-06-22T02:18:32;18.30;1.00
15217;DHT22;7711;46.634;14.318;2023-06-22T02:21:02;18.40;1.00
15217;DHT22;7711;46.634;14.318;2023-06-22T02:23:29;18.30;25.70
15217;DHT22;7711;46.634;14.318;2023-06-22T02:25:56;18.30;99.90
15217;DHT22;7711;46.634;14.318;2023-06-22T02:28:23;18.30;99.90
15217;DHT22;7711;46.634;14.318;2023-06-22T02:30:49;18.20;99.90
15217;DHT22;7711;46.634;14.318;2023-06-22T02:33:16;18.20;99.90
15217;DHT22;7711;46.634;14.318;2023-06-22T02:35:45;18.20;99.90
15217;DHT22;7711;46.634;14.318;2023-06-22T02:38:14;18.20;99.90
15217;DHT22;7711;46.634;14.318;2023-06-22T02:40:43;18.10;99.90
15217;DHT22;7711;46.634;14.318;2023-06-22T02:43:10;18.10;99.90
15217;DHT22;7711;46.634;14.318;2023-06-22T02:45:37;18.10;99.90
15217;DHT22;7711;46.634;14.318;2023-06-22T02:48:04;18.00;99.90
15217;DHT22;7711;46.634;14.318;2023-06-22T02:50:31;18.00;1.00
15217;DHT22;7711;46.634;14.318;2023-06-22T02:53:00;18.00;1.00
15217;DHT22;7711;46.634;14.318;2023-06-22T02:55:27;18.00;1.00
15217;DHT22;7711;46.634;14.318;2023-06-22T02:57:54;18.00;1.00
15217;DHT22;7711;46.634;14.318;2023-06-22T03:00:22;18.00;1.00
15217;DHT22;7711;46.634;14.318;2023-06-22T03:02:56;18.00;1.00
15217;DHT22;7711;46.634;14.318;2023-06-22T03:05:23;18.00;1.00
15217;DHT22;7711;46.634;14.318;2023-06-22T03:07:50;17.90;1.00
15217;DHT22;7711;46.634;14.318;2023-06-22T03:10:19;17.90;1.00
15217;DHT22;7711;46.634;14.318;2023-06-22T03:12:46;17.80;1.00
15217;DHT22;7711;46.634;14.318;2023-06-22T03:15:13;17.80;1.00
15217;DHT22;7711;46.634;14.318;2023-06-22T03:17:40;17.70;99.90
15217;DHT22;7711;46.634;14.318;2023-06-22T03:20:09;17.70;99.90
15217;DHT22;7711;46.634;14.318;2023-06-22T03:22:37;17.80;99.90
15217;DHT22;7711;46.634;14.318;2023-06-22T03:25:05;17.80;8.90
15217;DHT22;7711;46.634;14.318;2023-06-22T03:27:37;17.80;1.00
15217;DHT22;7711;46.634;14.318;2023-06-22T03:30:05;17.70;1.00
15217;DHT22;7711;46.634;14.318;2023-06-22T03:32:32;17.70;99.90
15217;DHT22;7711;46.634;14.318;2023-06-22T03:34:59;17.60;99.90
15217;DHT22;7711;46.634;14.318;2023-06-22T03:37:26;17.60;99.90
15217;DHT22;7711;46.634;14.318;2023-06-22T03:39:54;17.70;1.00
15217;DHT22;7711;46.634;14.318;2023-06-22T03:42:21;17.60;99.90
15217;DHT22;7711;46.634;14.318;2023-06-22T03:44:49;17.70;99.90
15217;DHT22;7711;46.634;14.318;2023-06-22T03:47:17;17.70;99.90
15217;DHT22;7711;46.634;14.318;2023-06-22T03:49:44;17.80;99.90
15217;DHT22;7711;46.634;14.318;2023-06-22T03:52:11;17.80;56.20
15217;DHT22;7711;46.634;14.318;2023-06-22T03:54:38;17.80;35.80
15217;DHT22;7711;46.634;14.318;2023-06-22T03:57:05;17.80;1.00
15217;DHT22;7711;46.634;14.318;2023-06-22T03:59:32;17.70;1.00
15217;DHT22;7711;46.634;14.318;2023-06-22T04:02:00;17.80;1.00
15217;DHT22;7711;46.634;14.318;2023-06-22T04:04:27;17.80;13.20
15217;DHT22;7711;46.634;14.318;2023-06-22T04:06:54;17.90;1.00
15217;DHT22;7711;46.634;14.318;2023-06-22T04:09:21;17.90;1.00
15217;DHT22;7711;46.634;14.318;2023-06-22T04:11:48;18.00;1.00
15217;DHT22;7711;46.634;14.318;2023-06-22T04:14:15;18.10;1.00
15217;DHT22;7711;46.634;14.318;2023-06-22T04:16:42;18.10;1.00
15217;DHT22;7711;46.634;14.318;2023-06-22T04:19:10;18.10;1.00
15217;DHT22;7711;46.634;14.318;2023-06-22T04:21:42;18.20;1.00
15217;DHT22;7711;46.634;14.318;2023-06-22T04:24:08;18.30;99.90
15217;DHT22;7711;46.634;14.318;2023-06-22T04:26:35;18.30;99.90
15217;DHT22;7711;46.634;14.318;2023-06-22T04:29:04;18.30;99.90
15217;DHT22;7711;46.634;14.318;2023-06-22T04:31:31;18.40;99.00
15217;DHT22;7711;46.634;14.318;2023-06-22T04:34:02;18.40;2.60
15217;DHT22;7711;46.634;14.318;2023-06-22T04:36:34;18.50;6.40
15217;DHT22;7711;46.634;14.318;2023-06-22T04:39:04;18.50;1.00
15217;DHT22;7711;46.634;14.318;2023-06-22T04:41:32;18.70;1.00
15217;DHT22;7711;46.634;14.318;2023-06-22T04:44:09;18.80;1.00
15217;DHT22;7711;46.634;14.318;2023-06-22T04:46:36;18.90;1.00
15217;DHT22;7711;46.634;14.318;2023-06-22T04:49:05;19.00;1.00
15217;DHT22;7711;46.634;14.318;2023-06-22T04:51:37;19.10;1.00
15217;DHT22;7711;46.634;14.318;2023-06-22T04:54:04;19.20;1.00
15217;DHT22;7711;46.634;14.318;2023-06-22T04:56:32;19.30;1.00
15217;DHT22;7711;46.634;14.318;2023-06-22T04:58:59;19.30;1.00
15217;DHT22;7711;46.634;14.318;2023-06-22T05:01:26;19.40;1.00
15217;DHT22;7711;46.634;14.318;2023-06-22T05:03:53;19.30;1.00
15217;DHT22;7711;46.634;14.318;2023-06-22T05:06:22;19.40;1.00
15217;DHT22;7711;46.634;14.318;2023-06-22T05:08:53;19.50;1.00
15217;DHT22;7711;46.634;14.318;2023-06-22T05:11:23;19.40;1.00
15217;DHT22;7711;46.634;14.318;2023-06-22T05:13:50;19.50;1.00
15217;DHT22;7711;46.634;14.318;2023-06-22T05:16:17;19.60;1.00
15217;DHT22;7711;46.634;14.318;2023-06-22T05:18:50;19.70;1.00
15217;DHT22;7711;46.634;14.318;2023-06-22T05:21:17;19.80;99.90
15217;DHT22;7711;46.634;14.318;2023-06-22T05:23:44;19.80;99.90
15217;DHT22;7711;46.634;14.318;2023-06-22T05:26:13;19.90;99.90
15217;DHT22;7711;46.634;14.318;2023-06-22T05:28:39;20.10;99.90
15217;DHT22;7711;46.634;14.318;2023-06-22T05:31:06;20.20;99.90
15217;DHT22;7711;46.634;14.318;2023-06-22T05:33:33;20.20;99.90
15217;DHT22;7711;46.634;14.318;2023-06-22T05:36:01;20.20;99.90
15217;DHT22;7711;46.634;14.318;2023-06-22T05:38:28;20.20;99.90
15217;DHT22;7711;46.634;14.318;2023-06-22T05:40:55;20.30;99.90
15217;DHT22;7711;46.634;14.318;2023-06-22T05:43:23;20.40;99.90
15217;DHT22;7711;46.634;14.318;2023-06-22T05:45:50;20.60;99.90
15217;DHT22;7711;46.634;14.318;2023-06-22T05:48:17;20.70;99.90
15217;DHT22;7711;46.634;14.318;2023-06-22T05:50:44;20.80;99.90
15217;DHT22;7711;46.634;14.318;2023-06-22T05:53:11;21.00;99.90
15217;DHT22;7711;46.634;14.318;2023-06-22T05:55:38;20.90;99.90
15217;DHT22;7711;46.634;14.318;2023-06-22T05:58:06;20.90;99.90
15217;DHT22;7711;46.634;14.318;2023-06-22T06:00:35;20.90;99.90
15217;DHT22;7711;46.634;14.318;2023-06-22T06:03:02;21.00;99.90
15217;DHT22;7711;46.634;14.318;2023-06-22T06:05:30;21.00;99.90
15217;DHT22;7711;46.634;14.318;2023-06-22T06:07:57;20.90;99.90
15217;DHT22;7711;46.634;14.318;2023-06-22T06:10:24;20.90;99.90
15217;DHT22;7711;46.634;14.318;2023-06-22T06:12:52;21.00;99.90
15217;DHT22;7711;46.634;14.318;2023-06-22T06:15:18;21.00;99.90
15217;DHT22;7711;46.634;14.318;2023-06-22T06:17:48;20.90;99.90
15217;DHT22;7711;46.634;14.318;2023-06-22T06:20:15;21.20;99.90
15217;DHT22;7711;46.634;14.318;2023-06-22T06:22:42;21.30;99.90
15217;DHT22;7711;46.634;14.318;2023-06-22T06:25:09;21.30;99.90
15217;DHT22;7711;46.634;14.318;2023-06-22T06:27:42;21.30;99.90
15217;DHT22;7711;46.634;14.318;2023-06-22T06:30:10;21.30;99.90
15217;DHT22;7711;46.634;14.318;2023-06-22T06:32:37;21.60;99.90
15217;DHT22;7711;46.634;14.318;2023-06-22T06:35:08;21.40;99.90
15217;DHT22;7711;46.634;14.318;2023-06-22T06:37:37;21.60;99.90
15217;DHT22;7711;46.634;14.318;2023-06-22T06:40:05;22.00;99.90
15217;DHT22;7711;46.634;14.318;2023-06-22T06:42:34;21.80;99.90
15217;DHT22;7711;46.634;14.318;2023-06-22T06:45:01;22.00;99.90
15217;DHT22;7711;46.634;14.318;2023-06-22T06:47:28;22.30;99.90
15217;DHT22;7711;46.634;14.318;2023-06-22T06:49:55;22.50;99.90
15217;DHT22;7711;46.634;14.318;2023-06-22T06:52:23;22.80;99.90
15217;DHT22;7711;46.634;14.318;2023-06-22T06:54:50;22.80;99.90
15217;DHT22;7711;46.634;14.318;2023-06-22T06:57:18;22.40;99.90
15217;DHT22;7711;46.634;14.318;2023-06-22T06:59:45;22.40;99.90
15217;DHT22;7711;46.634;14.318;2023-06-22T07:02:13;22.70;99.90
15217;DHT22;7711;46.634;14.318;2023-06-22T07:04:40;22.60;99.90
15217;DHT22;7711;46.634;14.318;2023-06-22T07:07:07;22.80;99.90
15217;DHT22;7711;46.634;14.318;2023-06-22T07:09:36;22.80;99.90
15217;DHT22;7711;46.634;14.318;2023-06-22T07:12:03;22.90;99.90
15217;DHT22;7711;46.634;14.318;2023-06-22T07:14:30;23.20;99.90
15217;DHT22;7711;46.634;14.318;2023-06-22T07:16:58;23.10;99.90
15217;DHT22;7711;46.634;14.318;2023-06-22T07:19:25;23.20;99.90
15217;DHT22;7711;46.634;14.318;2023-06-22T07:21:53;23.10;99.90
15217;DHT22;7711;46.634;14.318;2023-06-22T07:24:20;23.40;99.90
15217;DHT22;7711;46.634;14.318;2023-06-22T07:26:49;23.60;99.90
15217;DHT22;7711;46.634;14.318;2023-06-22T07:29:17;23.80;99.90
15217;DHT22;7711;46.634;14.318;2023-06-22T07:31:45;23.60;99.90
15217;DHT22;7711;46.634;14.318;2023-06-22T07:34:12;23.50;99.90
15217;DHT22;7711;46.634;14.318;2023-06-22T07:36:39;23.60;99.90
15217;DHT22;7711;46.634;14.318;2023-06-22T07:39:06;23.80;99.90
15217;DHT22;7711;46.634;14.318;2023-06-22T07:41:33;23.70;99.90
15217;DHT22;7711;46.634;14.318;2023-06-22T07:44:02;24.00;99.90
15217;DHT22;7711;46.634;14.318;2023-06-22T07:46:29;24.30;99.90
15217;DHT22;7711;46.634;14.318;2023-06-22T07:48:56;24.40;99.90
15217;DHT22;7711;46.634;14.318;2023-06-22T07:51:25;24.30;99.90
15217;DHT22;7711;46.634;14.318;2023-06-22T07:53:52;24.40;99.90
15217;DHT22;7711;46.634;14.318;2023-06-22T07:56:18;24.10;99.90
15217;DHT22;7711;46.634;14.318;2023-06-22T07:58:46;24.20;99.90
15217;DHT22;7711;46.634;14.318;2023-06-22T08:01:15;24.50;99.90
15217;DHT22;7711;46.634;14.318;2023-06-22T08:03:42;24.70;99.90
15217;DHT22;7711;46.634;14.318;2023-06-22T08:06:09;24.70;99.90
15217;DHT22;7711;46.634;14.318;2023-06-22T08:08:37;24.70;99.90
15217;DHT22;7711;46.634;14.318;2023-06-22T08:11:04;24.80;99.90
15217;DHT22;7711;46.634;14.318;2023-06-22T08:13:31;25.00;99.90
15217;DHT22;7711;46.634;14.318;2023-06-22T08:15:58;25.30;99.90
15217;DHT22;7711;46.634;14.318;2023-06-22T08:18:26;25.50;99.90
15217;DHT22;7711;46.634;14.318;2023-06-22T08:20:53;25.70;99.90
15217;DHT22;7711;46.634;14.318;2023-06-22T08:23:20;25.70;99.90
15217;DHT22;7711;46.634;14.318;2023-06-22T08:25:47;25.60;99.90
15217;DHT22;7711;46.634;14.318;2023-06-22T08:28:16;25.40;99.90
15217;DHT22;7711;46.634;14.318;2023-06-22T08:30:42;25.40;99.90
15217;DHT22;7711;46.634;14.318;2023-06-22T08:33:10;25.50;99.90
15217;DHT22;7711;46.634;14.318;2023-06-22T08:35:38;25.70;99.90
15217;DHT22;7711;46.634;14.318;2023-06-22T08:38:06;25.70;99.90
15217;DHT22;7711;46.634;14.318;2023-06-22T08:40:33;26.00;99.90
15217;DHT22;7711;46.634;14.318;2023-06-22T08:43:00;26.10;99.90
15217;DHT22;7711;46.634;14.318;2023-06-22T08:45:27;26.00;99.90
15217;DHT22;7711;46.634;14.318;2023-06-22T08:47:54;26.20;99.90
15217;DHT22;7711;46.634;14.318;2023-06-22T08:50:21;25.70;99.90
15217;DHT22;7711;46.634;14.318;2023-06-22T08:52:50;25.50;99.90
15217;DHT22;7711;46.634;14.318;2023-06-22T08:55:17;25.80;99.90
15217;DHT22;7711;46.634;14.318;2023-06-22T08:57:44;25.80;99.90
15217;DHT22;7711;46.634;14.318;2023-06-22T09:00:11;26.20;99.90
15217;DHT22;7711;46.634;14.318;2023-06-22T09:02:47;26.60;99.90
15217;DHT22;7711;46.634;14.318;2023-06-22T09:05:14;26.90;99.90
15217;DHT22;7711;46.634;14.318;2023-06-22T09:07:42;27.00;99.90
15217;DHT22;7711;46.634;14.318;2023-06-22T09:10:10;26.70;99.90
15217;DHT22;7711;46.634;14.318;2023-06-22T09:12:38;26.30;99.90
15217;DHT22;7711;46.634;14.318;2023-06-22T09:15:06;26.30;99.90
15217;DHT22;7711;46.634;14.318;2023-06-22T09:17:33;26.60;99.90
15217;DHT22;7711;46.634;14.318;2023-06-22T09:20:03;26.90;99.90
15217;DHT22;7711;46.634;14.318;2023-06-22T09:22:31;27.00;99.90
15217;DHT22;7711;46.634;14.318;2023-06-22T09:24:58;26.90;99.90
15217;DHT22;7711;46.634;14.318;2023-06-22T09:27:28;26.30;99.90
15217;DHT22;7711;46.634;14.318;2023-06-22T09:29:55;26.10;99.90
15217;DHT22;7711;46.634;14.318;2023-06-22T09:32:24;26.20;99.90
15217;DHT22;7711;46.634;14.318;2023-06-22T09:34:50;26.40;99.90
15217;DHT22;7711;46.634;14.318;2023-06-22T09:37:18;26.90;99.90
15217;DHT22;7711;46.634;14.318;2023-06-22T09:39:45;27.20;99.90
15217;DHT22;7711;46.634;14.318;2023-06-22T09:42:12;27.50;99.90
15217;DHT22;7711;46.634;14.318;2023-06-22T09:44:41;27.50;99.90
15217;DHT22;7711;46.634;14.318;2023-06-22T09:47:08;27.90;99.90
15217;DHT22;7711;46.634;14.318;2023-06-22T09:49:35;28.10;99.90
15217;DHT22;7711;46.634;14.318;2023-06-22T09:52:02;28.20;99.90
15217;DHT22;7711;46.634;14.318;2023-06-22T09:54:29;28.70;99.90
15217;DHT22;7711;46.634;14.318;2023-06-22T09:56:56;29.00;99.90
15217;DHT22;7711;46.634;14.318;2023-06-22T09:59:23;28.50;99.90
15217;DHT22;7711;46.634;14.318;2023-06-22T10:01:51;28.80;99.90
15217;DHT22;7711;46.634;14.318;2023-06-22T10:04:18;29.10;99.90
15217;DHT22;7711;46.634;14.318;2023-06-22T10:06:45;29.40;99.90
15217;DHT22;7711;46.634;14.318;2023-06-22T10:09:13;29.60;99.90
15217;DHT22;7711;46.634;14.318;2023-06-22T10:11:40;29.80;99.90
15217;DHT22;7711;46.634;14.318;2023-06-22T10:14:07;30.00;99.90
15217;DHT22;7711;46.634;14.318;2023-06-22T10:16:36;29.70;99.90
15217;DHT22;7711;46.634;14.318;2023-06-22T10:19:05;29.10;99.90
15217;DHT22;7711;46.634;14.318;2023-06-22T10:21:32;29.40;99.90
15217;DHT22;7711;46.634;14.318;2023-06-22T10:23:59;29.70;99.90
15217;DHT22;7711;46.634;14.318;2023-06-22T10:26:31;30.10;99.90
15217;DHT22;7711;46.634;14.318;2023-06-22T10:28:58;30.00;99.90
15217;DHT22;7711;46.634;14.318;2023-06-22T10:31:25;30.00;99.90
15217;DHT22;7711;46.634;14.318;2023-06-22T10:33:53;29.50;99.70
15217;DHT22;7711;46.634;14.318;2023-06-22T10:36:22;29.90;98.90
15217;DHT22;7711;46.634;14.318;2023-06-22T10:38:49;30.00;98.80
15217;DHT22;7711;46.634;14.318;2023-06-22T10:41:16;29.80;98.90
15217;DHT22;7711;46.634;14.318;2023-06-22T10:43:43;30.00;97.50
15217;DHT22;7711;46.634;14.318;2023-06-22T10:46:10;29.90;96.70
15217;DHT22;7711;46.634;14.318;2023-06-22T10:48:37;29.60;93.90
15217;DHT22;7711;46.634;14.318;2023-06-22T10:51:04;29.70;96.60
15217;DHT22;7711;46.634;14.318;2023-06-22T10:53:33;30.00;95.30
15217;DHT22;7711;46.634;14.318;2023-06-22T10:56:00;30.00;92.70
15217;DHT22;7711;46.634;14.318;2023-06-22T10:58:26;29.60;94.70
15217;DHT22;7711;46.634;14.318;2023-06-22T11:00:53;29.60;93.70
15217;DHT22;7711;46.634;14.318;2023-06-22T11:03:20;29.90;93.10
15217;DHT22;7711;46.634;14.318;2023-06-22T11:05:47;29.80;91.30
15217;DHT22;7711;46.634;14.318;2023-06-22T11:08:14;29.90;91.90
15217;DHT22;7711;46.634;14.318;2023-06-22T11:10:43;30.30;91.10
15217;DHT22;7711;46.634;14.318;2023-06-22T11:13:11;30.70;91.70
15217;DHT22;7711;46.634;14.318;2023-06-22T11:15:38;30.80;90.30
15217;DHT22;7711;46.634;14.318;2023-06-22T11:18:05;31.20;91.70
15217;DHT22;7711;46.634;14.318;2023-06-22T11:20:33;31.40;84.50
15217;DHT22;7711;46.634;14.318;2023-06-22T11:23:04;31.90;84.90
15217;DHT22;7711;46.634;14.318;2023-06-22T11:25:31;31.90;82.70
15217;DHT22;7711;46.634;14.318;2023-06-22T11:28:02;31.80;77.20
15217;DHT22;7711;46.634;14.318;2023-06-22T11:30:30;32.20;81.40
15217;DHT22;7711;46.634;14.318;2023-06-22T11:32:58;31.90;76.10
15217;DHT22;7711;46.634;14.318;2023-06-22T11:35:25;31.90;73.50
15217;DHT22;7711;46.634;14.318;2023-06-22T11:37:52;31.90;77.60
15217;DHT22;7711;46.634;14.318;2023-06-22T11:40:19;32.30;76.10
15217;DHT22;7711;46.634;14.318;2023-06-22T11:42:48;32.10;71.50
15217;DHT22;7711;46.634;14.318;2023-06-22T11:45:16;32.30;73.80
15217;DHT22;7711;46.634;14.318;2023-06-22T11:47:44;32.20;70.00
15217;DHT22;7711;46.634;14.318;2023-06-22T11:50:11;31.40;65.60
15217;DHT22;7711;46.634;14.318;2023-06-22T11:52:38;32.10;71.10
15217;DHT22;7711;46.634;14.318;2023-06-22T11:55:06;32.30;68.70
15217;DHT22;7711;46.634;14.318;2023-06-22T11:57:34;32.40;69.50
15217;DHT22;7711;46.634;14.318;2023-06-22T12:00:01;32.40;66.10
15217;DHT22;7711;46.634;14.318;2023-06-22T12:02:37;32.20;68.00
15217;DHT22;7711;46.634;14.318;2023-06-22T12:05:05;31.90;61.90
15217;DHT22;7711;46.634;14.318;2023-06-22T12:07:33;32.30;67.20
15217;DHT22;7711;46.634;14.318;2023-06-22T12:10:01;32.30;65.30
15217;DHT22;7711;46.634;14.318;2023-06-22T12:12:28;32.40;61.60
15217;DHT22;7711;46.634;14.318;2023-06-22T12:14:55;32.50;61.10
15217;DHT22;7711;46.634;14.318;2023-06-22T12:17:22;32.40;61.90
15217;DHT22;7711;46.634;14.318;2023-06-22T12:19:50;32.30;62.10
15217;DHT22;7711;46.634;14.318;2023-06-22T12:22:17;32.60;61.30
15217;DHT22;7711;46.634;14.318;2023-06-22T12:24:44;32.60;59.70
15217;DHT22;7711;46.634;14.318;2023-06-22T12:27:11;32.50;56.30
15217;DHT22;7711;46.634;14.318;2023-06-22T12:29:42;32.70;57.30
15217;DHT22;7711;46.634;14.318;2023-06-22T12:32:09;33.00;56.90
15217;DHT22;7711;46.634;14.318;2023-06-22T12:34:38;32.50;55.80
15217;DHT22;7711;46.634;14.318;2023-06-22T12:37:07;32.80;56.60
15217;DHT22;7711;46.634;14.318;2023-06-22T12:39:34;33.20;53.40
15217;DHT22;7711;46.634;14.318;2023-06-22T12:42:01;33.60;50.50
15217;DHT22;7711;46.634;14.318;2023-06-22T12:44:28;33.70;47.50
15217;DHT22;7711;46.634;14.318;2023-06-22T12:46:55;33.60;46.20
15217;DHT22;7711;46.634;14.318;2023-06-22T12:49:22;32.70;39.90
15217;DHT22;7711;46.634;14.318;2023-06-22T12:51:49;33.40;43.30
15217;DHT22;7711;46.634;14.318;2023-06-22T12:54:17;34.00;40.20
15217;DHT22;7711;46.634;14.318;2023-06-22T12:56:44;34.10;38.10
15217;DHT22;7711;46.634;14.318;2023-06-22T12:59:11;34.60;37.60
15217;DHT22;7711;46.634;14.318;2023-06-22T13:01:38;34.70;33.00
15217;DHT22;7711;46.634;14.318;2023-06-22T13:04:05;34.70;33.20
15217;DHT22;7711;46.634;14.318;2023-06-22T13:06:32;35.10;33.00
15217;DHT22;7711;46.634;14.318;2023-06-22T13:08:59;35.10;26.00
15217;DHT22;7711;46.634;14.318;2023-06-22T13:11:28;35.10;22.20
15217;DHT22;7711;46.634;14.318;2023-06-22T13:13:55;34.40;20.90
15217;DHT22;7711;46.634;14.318;2023-06-22T13:16:22;34.80;22.50
15217;DHT22;7711;46.634;14.318;2023-06-22T13:18:48;35.60;20.90
15217;DHT22;7711;46.634;14.318;2023-06-22T13:21:15;35.60;20.10
15217;DHT22;7711;46.634;14.318;2023-06-22T13:23:42;35.70;21.00
15217;DHT22;7711;46.634;14.318;2023-06-22T13:26:09;36.20;18.90
15217;DHT22;7711;46.634;14.318;2023-06-22T13:28:38;36.30;16.80
15217;DHT22;7711;46.634;14.318;2023-06-22T13:31:05;35.90;14.30
15217;DHT22;7711;46.634;14.318;2023-06-22T13:33:32;34.70;12.70
15217;DHT22;7711;46.634;14.318;2023-06-22T13:35:59;34.60;18.30
15217;DHT22;7711;46.634;14.318;2023-06-22T13:38:29;34.60;16.90
15217;DHT22;7711;46.634;14.318;2023-06-22T13:40:56;35.00;17.40
15217;DHT22;7711;46.634;14.318;2023-06-22T13:43:26;35.10;15.50
15217;DHT22;7711;46.634;14.318;2023-06-22T13:45:55;35.60;17.90
15217;DHT22;7711;46.634;14.318;2023-06-22T13:48:22;36.00;12.70
15217;DHT22;7711;46.634;14.318;2023-06-22T13:50:49;35.40;12.80
15217;DHT22;7711;46.634;14.318;2023-06-22T13:53:16;36.00;14.50
15217;DHT22;7711;46.634;14.318;2023-06-22T13:55:43;36.70;9.70
15217;DHT22;7711;46.634;14.318;2023-06-22T13:58:10;36.40;6.30
15217;DHT22;7711;46.634;14.318;2023-06-22T14:00:37;36.80;2.10
15217;DHT22;7711;46.634;14.318;2023-06-22T14:03:05;36.10;1.40
15217;DHT22;7711;46.634;14.318;2023-06-22T14:05:32;34.80;1.60
15217;DHT22;7711;46.634;14.318;2023-06-22T14:07:59;34.70;5.90
15217;DHT22;7711;46.634;14.318;2023-06-22T14:10:26;34.40;6.40
15217;DHT22;7711;46.634;14.318;2023-06-22T14:12:53;34.30;6.30
15217;DHT22;7711;46.634;14.318;2023-06-22T14:15:20;34.70;6.40
15217;DHT22;7711;46.634;14.318;2023-06-22T14:17:47;34.90;9.20
15217;DHT22;7711;46.634;14.318;2023-06-22T14:20:16;35.10;6.70
15217;DHT22;7711;46.634;14.318;2023-06-22T14:22:43;35.30;6.30
15217;DHT22;7711;46.634;14.318;2023-06-22T14:25:10;35.30;5.10
15217;DHT22;7711;46.634;14.318;2023-06-22T14:27:37;35.20;5.90
15217;DHT22;7711;46.634;14.318;2023-06-22T14:30:05;36.10;4.30
15217;DHT22;7711;46.634;14.318;2023-06-22T14:32:33;36.40;3.50
15217;DHT22;7711;46.634;14.318;2023-06-22T14:35:00;37.20;1.50
15217;DHT22;7711;46.634;14.318;2023-06-22T14:37:28;38.00;1.00
15217;DHT22;7711;46.634;14.318;2023-06-22T14:39:55;38.10;1.00
15217;DHT22;7711;46.634;14.318;2023-06-22T14:42:22;38.20;1.00
15217;DHT22;7711;46.634;14.318;2023-06-22T14:44:49;38.20;1.00
15217;DHT22;7711;46.634;14.318;2023-06-22T14:47:16;37.80;1.00
15217;DHT22;7711;46.634;14.318;2023-06-22T14:49:44;38.20;1.00
15217;DHT22;7711;46.634;14.318;2023-06-22T14:52:11;37.90;1.00
15217;DHT22;7711;46.634;14.318;2023-06-22T14:54:41;38.80;1.00
15217;DHT22;7711;46.634;14.318;2023-06-22T14:57:08;39.00;1.00
15217;DHT22;7711;46.634;14.318;2023-06-22T14:59:35;38.80;1.00
15217;DHT22;7711;46.634;14.318;2023-06-22T15:02:02;39.20;1.00
15217;DHT22;7711;46.634;14.318;2023-06-22T15:04:29;39.00;1.00
15217;DHT22;7711;46.634;14.318;2023-06-22T15:07:00;38.70;1.00
15217;DHT22;7711;46.634;14.318;2023-06-22T15:09:27;39.20;1.00
15217;DHT22;7711;46.634;14.318;2023-06-22T15:11:56;39.20;1.00
15217;DHT22;7711;46.634;14.318;2023-06-22T15:14:23;39.00;1.00
15217;DHT22;7711;46.634;14.318;2023-06-22T15:16:50;39.00;1.00
15217;DHT22;7711;46.634;14.318;2023-06-22T15:19:17;39.40;1.00
15217;DHT22;7711;46.634;14.318;2023-06-22T15:21:44;38.90;1.00
15217;DHT22;7711;46.634;14.318;2023-06-22T15:24:11;38.90;1.00
15217;DHT22;7711;46.634;14.318;2023-06-22T15:26:38;38.80;1.00
15217;DHT22;7711;46.634;14.318;2023-06-22T15:29:07;38.90;1.00
15217;DHT22;7711;46.634;14.318;2023-06-22T15:31:34;39.30;1.00
15217;DHT22;7711;46.634;14.318;2023-06-22T15:34:01;39.50;1.00
15217;DHT22;7711;46.634;14.318;2023-06-22T15:36:29;39.00;1.00
15217;DHT22;7711;46.634;14.318;2023-06-22T15:38:56;38.60;1.00